createdAt,value
2019-01-28T00:03:59.179Z,8.93
2019-01-28T00:06:39.734Z,6.27
2019-01-28T00:09:22.097Z,6.53
2019-01-28T00:12:03.399Z,6.03
2019-01-28T00:14:43.926Z,5.10
2019-01-28T00:17:24.695Z,8.67
2019-01-28T00:20:05.214Z,3.17
2019-01-28T00:22:45.776Z,3.80
2019-01-28T00:25:26.269Z,7.47
2019-01-28T00:28:07.049Z,5.30
2019-01-28T00:30:47.454Z,4.10
2019-01-28T00:33:27.878Z,8.80
2019-01-28T00:36:15.787Z,12.00
2019-01-28T00:39:24.989Z,7.80
2019-01-28T00:42:13.234Z,8.80
2019-01-28T00:45:01.323Z,13.70
2019-01-28T00:47:49.298Z,5.63
2019-01-28T00:50:37.556Z,8.97
2019-01-28T00:53:25.531Z,5.03
2019-01-28T00:56:13.840Z,8.30
2019-01-28T00:59:01.826Z,8.83
2019-01-28T01:01:49.799Z,6.33
2019-01-28T01:04:37.787Z,8.03
2019-01-28T01:07:25.762Z,5.53
2019-01-28T01:10:06.525Z,8.10
2019-01-28T01:12:47.206Z,6.37
2019-01-28T01:15:27.935Z,8.50
2019-01-28T01:18:08.852Z,7.33
2019-01-28T01:20:50.047Z,10.43
2019-01-28T01:23:30.665Z,5.50
2019-01-28T01:26:11.245Z,12.57
2019-01-28T01:28:52.214Z,7.73
2019-01-28T01:31:32.773Z,10.90
2019-01-28T01:34:13.497Z,4.83
2019-01-28T01:36:54.430Z,6.30
2019-01-28T01:39:35.431Z,9.33
2019-01-28T01:42:16.167Z,5.60
2019-01-28T01:44:56.527Z,8.43
2019-01-28T01:47:37.237Z,11.27
2019-01-28T01:50:18.190Z,6.47
2019-01-28T01:52:58.594Z,7.23
2019-01-28T01:55:39.245Z,11.07
2019-01-28T01:58:19.803Z,8.33
2019-01-28T02:01:00.556Z,7.53
2019-01-28T02:03:41.030Z,6.77
2019-01-28T02:06:21.694Z,6.10
2019-01-28T02:09:02.355Z,10.50
2019-01-28T02:11:43.180Z,9.77
2019-01-28T02:14:23.987Z,6.60
2019-01-28T02:17:04.855Z,6.07
2019-01-28T02:19:45.393Z,14.23
2019-01-28T02:22:26.266Z,10.60
2019-01-28T02:25:06.743Z,10.80
2019-01-28T02:27:47.851Z,8.97
2019-01-28T02:30:28.220Z,7.40
2019-01-28T02:33:09.268Z,9.17
2019-01-28T02:35:49.775Z,9.83
2019-01-28T02:38:30.519Z,7.53
2019-01-28T02:41:11.271Z,9.27
2019-01-28T02:43:51.790Z,10.20
2019-01-28T02:46:32.545Z,6.47
2019-01-28T02:49:13.564Z,7.90
2019-01-28T02:51:53.957Z,9.50
2019-01-28T02:54:34.988Z,6.40
2019-01-28T02:57:15.878Z,5.17
2019-01-28T02:59:56.513Z,8.03
2019-01-28T03:02:37.035Z,7.70
2019-01-28T03:05:17.967Z,9.77
2019-01-28T03:07:58.507Z,7.00
2019-01-28T03:10:39.269Z,8.67
2019-01-28T03:13:20.071Z,7.67
2019-01-28T03:16:00.697Z,10.43
2019-01-28T03:18:41.294Z,7.07
2019-01-28T03:21:22.064Z,8.23
2019-01-28T03:24:03.037Z,6.90
2019-01-28T03:26:43.587Z,14.27
2019-01-28T03:29:24.295Z,10.73
2019-01-28T03:32:05.184Z,7.27
2019-01-28T03:34:45.962Z,5.97
2019-01-28T03:37:26.562Z,6.87
2019-01-28T03:40:07.356Z,7.90
2019-01-28T03:42:48.291Z,4.87
2019-01-28T03:45:28.940Z,10.73
2019-01-28T03:48:09.473Z,6.37
2019-01-28T03:50:50.192Z,6.00
2019-01-28T03:53:31.157Z,5.10
2019-01-28T03:56:11.887Z,6.60
2019-01-28T03:58:52.570Z,5.90
2019-01-28T04:01:33.479Z,4.63
2019-01-28T04:04:14.460Z,5.47
2019-01-28T04:06:55.635Z,5.90
2019-01-28T04:09:36.088Z,5.17
2019-01-28T04:12:17.090Z,6.53
2019-01-28T04:14:58.044Z,5.13
2019-01-28T04:17:38.419Z,5.10
2019-01-28T04:20:20.184Z,5.23
2019-01-28T04:23:00.922Z,5.67
2019-01-28T04:25:41.639Z,6.97
2019-01-28T04:28:22.502Z,4.90
2019-01-28T04:31:03.070Z,5.90
2019-01-28T04:33:43.893Z,9.13
2019-01-28T04:36:24.861Z,4.53
2019-01-28T04:39:05.564Z,4.33
2019-01-28T04:41:46.272Z,4.03
2019-01-28T04:44:27.214Z,4.00
2019-01-28T04:47:07.935Z,5.50
2019-01-28T04:49:48.704Z,5.00
2019-01-28T04:52:29.855Z,5.13
2019-01-28T04:55:10.442Z,4.90
2019-01-28T04:57:51.241Z,3.40
2019-01-28T05:00:32.155Z,4.07
2019-01-28T05:03:12.700Z,3.90
2019-01-28T05:05:53.873Z,4.07
2019-01-28T05:08:34.661Z,4.33
2019-01-28T05:11:15.328Z,5.67
2019-01-28T05:13:56.115Z,3.33
2019-01-28T05:16:36.561Z,4.03
2019-01-28T05:19:17.211Z,3.13
2019-01-28T05:21:57.742Z,3.33
2019-01-28T05:24:38.305Z,5.67
2019-01-28T05:27:19.317Z,2.70
2019-01-28T05:30:00.316Z,2.73
2019-01-28T05:32:41.616Z,3.40
2019-01-28T05:35:22.382Z,2.77
2019-01-28T05:38:03.300Z,4.03
2019-01-28T05:40:43.720Z,2.77
2019-01-28T05:43:24.737Z,3.20
2019-01-28T05:46:05.245Z,3.00
2019-01-28T05:48:46.237Z,2.97
2019-01-28T05:51:26.806Z,3.30
2019-01-28T05:54:07.628Z,3.10
2019-01-28T05:56:48.691Z,3.40
2019-01-28T05:59:29.607Z,2.83
2019-01-28T06:02:10.079Z,3.67
2019-01-28T06:04:50.702Z,3.73
2019-01-28T06:07:31.568Z,2.37
2019-01-28T06:10:12.483Z,2.90
2019-01-28T06:12:53.291Z,2.50
2019-01-28T06:15:33.823Z,2.33
2019-01-28T06:18:14.512Z,2.17
2019-01-28T06:20:55.090Z,2.63
2019-01-28T06:23:35.794Z,5.93
2019-01-28T06:26:16.522Z,2.63
2019-01-28T06:28:57.265Z,2.63
2019-01-28T06:31:37.854Z,3.43
2019-01-28T06:34:18.636Z,2.60
2019-01-28T06:36:59.315Z,2.10
2019-01-28T06:39:40.022Z,2.90
2019-01-28T06:42:20.808Z,2.53
2019-01-28T06:45:02.281Z,2.17
2019-01-28T06:47:47.065Z,3.60
2019-01-28T06:50:25.967Z,1.90
2019-01-28T06:53:06.563Z,2.50
2019-01-28T06:55:47.223Z,2.20
2019-01-28T06:58:28.073Z,3.23
2019-01-28T07:01:08.664Z,1.90
2019-01-28T07:03:49.419Z,2.80
2019-01-28T07:06:30.214Z,2.53
2019-01-28T07:09:11.059Z,2.70
2019-01-28T07:11:51.750Z,2.50
2019-01-28T07:14:32.399Z,1.63
2019-01-28T07:17:01.543Z,2.10
2019-01-28T07:22:58.365Z,2.37
2019-01-28T07:25:46.675Z,2.90
2019-01-28T07:28:34.662Z,1.57
2019-01-28T07:31:22.667Z,3.20
2019-01-28T07:34:10.663Z,2.13
2019-01-28T07:36:58.647Z,1.60
2019-01-28T07:39:46.650Z,3.20
2019-01-28T07:42:34.642Z,1.50
2019-01-28T07:45:45.567Z,1.77
2019-01-28T07:48:31.563Z,1.90
2019-01-28T07:51:19.572Z,2.10
2019-01-28T07:54:07.632Z,4.10
2019-01-28T07:56:55.625Z,1.63
2019-01-28T08:00:02.832Z,2.70
2019-01-28T08:02:50.840Z,3.03
2019-01-28T08:05:38.893Z,1.47
2019-01-28T08:08:27.200Z,1.70
2019-01-28T08:11:08.423Z,1.67
2019-01-28T08:13:49.124Z,1.80
2019-01-28T08:16:29.980Z,2.30
2019-01-28T08:19:10.294Z,2.13
2019-01-28T08:21:50.982Z,2.43
2019-01-28T08:24:31.992Z,1.50
2019-01-28T08:27:13.056Z,1.50
2019-01-28T08:29:53.674Z,1.93
2019-01-28T08:32:34.195Z,1.60
2019-01-28T08:35:15.045Z,1.60
2019-01-28T08:37:55.634Z,1.83
2019-01-28T08:40:36.986Z,0.90
2019-01-28T08:43:17.442Z,1.30
2019-01-28T08:45:58.298Z,1.40
2019-01-28T08:48:38.743Z,1.13
2019-01-28T08:51:19.432Z,1.83
2019-01-28T08:53:48.726Z,1.60
2019-01-28T08:56:36.857Z,1.20
2019-01-28T08:59:25.119Z,3.13
2019-01-28T09:02:13.102Z,1.17
2019-01-28T09:05:01.084Z,1.53
2019-01-28T09:07:49.439Z,1.03
2019-01-28T09:10:30.324Z,1.47
2019-01-28T09:13:11.028Z,0.80
2019-01-28T09:15:51.900Z,1.37
2019-01-28T09:18:32.692Z,1.10
2019-01-28T09:21:13.466Z,1.43
2019-01-28T09:23:54.205Z,0.70
2019-01-28T09:26:34.856Z,0.77
2019-01-28T09:29:15.486Z,1.40
2019-01-28T09:31:56.139Z,0.90
2019-01-28T09:34:36.884Z,0.70
2019-01-28T09:37:17.594Z,0.90
2019-01-28T09:39:58.305Z,0.93
2019-01-28T09:42:39.003Z,0.73
2019-01-28T09:45:19.889Z,1.13
2019-01-28T09:48:00.279Z,0.60
2019-01-28T09:50:40.803Z,0.63
2019-01-28T09:53:21.463Z,2.00
2019-01-28T09:56:02.790Z,0.83
2019-01-28T09:58:43.737Z,0.77
2019-01-28T10:01:24.464Z,0.70
2019-01-28T10:04:05.397Z,0.70
2019-01-28T10:06:46.647Z,0.60
2019-01-28T10:09:27.435Z,0.90
2019-01-28T10:12:07.863Z,1.27
2019-01-28T10:14:48.443Z,0.60
2019-01-28T10:17:28.956Z,0.67
2019-01-28T10:20:09.736Z,0.70
2019-01-28T10:22:50.394Z,0.63
2019-01-28T10:25:31.103Z,2.03
2019-01-28T10:28:11.746Z,0.60
2019-01-28T10:30:52.303Z,0.60
2019-01-28T10:33:33.228Z,0.60
2019-01-28T10:36:14.083Z,0.50
2019-01-28T10:38:54.804Z,0.60
2019-01-28T10:41:35.435Z,0.50
2019-01-28T10:44:16.128Z,0.70
2019-01-28T10:46:57.044Z,0.60
2019-01-28T10:49:38.056Z,0.50
2019-01-28T10:52:18.783Z,0.60
2019-01-28T10:54:59.230Z,0.60
2019-01-28T10:57:40.311Z,0.80
2019-01-28T11:00:21.141Z,1.23
2019-01-28T11:03:01.807Z,1.27
2019-01-28T11:05:42.757Z,0.60
2019-01-28T11:08:23.403Z,0.70
2019-01-28T11:11:02.689Z,1.33
2019-01-28T11:13:50.708Z,0.87
2019-01-28T11:16:38.936Z,0.50
2019-01-28T11:19:28.585Z,0.97
2019-01-28T11:22:16.654Z,1.77
2019-01-28T11:25:05.635Z,0.63
2019-01-28T11:27:53.714Z,0.83
2019-01-28T11:31:01.835Z,0.77
2019-01-28T11:33:49.996Z,0.80
2019-01-28T11:36:39.659Z,0.70
2019-01-28T11:39:27.740Z,1.03
2019-01-28T11:42:15.899Z,0.90
2019-01-28T11:45:07.082Z,4.00
2019-01-28T11:47:57.047Z,0.70
2019-01-28T11:50:46.808Z,0.93
2019-01-28T11:53:34.799Z,1.50
2019-01-28T11:56:22.866Z,0.93
2019-01-28T11:59:10.861Z,4.87
2019-01-28T12:01:58.853Z,0.70
2019-01-28T12:04:47.242Z,1.70
2019-01-28T12:07:35.240Z,2.87
2019-01-28T12:10:16.217Z,0.60
2019-01-28T12:12:56.938Z,0.90
2019-01-28T12:15:38.125Z,0.73
2019-01-28T12:18:19.050Z,1.33
2019-01-28T12:20:59.734Z,1.00
2019-01-28T12:23:40.331Z,1.20
2019-01-28T12:26:21.161Z,1.50
2019-01-28T12:29:01.688Z,1.43
2019-01-28T12:31:42.228Z,3.30
2019-01-28T12:34:23.104Z,0.80
2019-01-28T12:37:03.638Z,0.80
2019-01-28T12:39:44.379Z,1.73
2019-01-28T12:42:25.190Z,1.13
2019-01-28T12:45:05.820Z,0.77
2019-01-28T12:47:46.453Z,1.47
2019-01-28T12:50:27.047Z,3.37
2019-01-28T12:53:07.458Z,1.87
2019-01-28T12:55:49.272Z,1.53
2019-01-28T12:58:29.947Z,0.60
2019-01-28T13:01:10.711Z,2.00
2019-01-28T13:03:51.422Z,1.70
2019-01-28T13:06:31.947Z,1.47
2019-01-28T13:09:14.137Z,2.67
2019-01-28T13:11:54.825Z,1.10
2019-01-28T13:14:36.035Z,2.00
2019-01-28T13:17:16.660Z,1.63
2019-01-28T13:19:57.178Z,1.50
2019-01-28T13:22:44.773Z,0.80
2019-01-28T13:25:20.656Z,0.80
2019-01-28T13:28:01.730Z,2.10
2019-01-28T13:30:43.016Z,2.93
2019-01-28T13:33:23.638Z,1.20
2019-01-28T13:36:09.151Z,1.10
2019-01-28T13:38:46.376Z,0.80
2019-01-28T13:41:27.035Z,0.73
2019-01-28T13:44:07.839Z,0.77
2019-01-28T13:46:48.999Z,0.83
2019-01-28T13:49:37.967Z,1.10
2019-01-28T13:52:12.431Z,1.00
2019-01-28T13:54:53.023Z,1.40
2019-01-28T13:57:33.645Z,0.90
2019-01-28T14:00:14.840Z,0.80
2019-01-28T14:02:55.875Z,1.33
2019-01-28T14:05:36.683Z,0.80
2019-01-28T14:08:17.510Z,2.10
2019-01-28T14:10:58.416Z,1.00
2019-01-28T14:13:39.124Z,1.03
2019-01-28T14:16:19.884Z,1.20
2019-01-28T14:19:00.353Z,1.10
2019-01-28T14:21:41.013Z,1.70
2019-01-28T14:24:21.543Z,1.23
2019-01-28T14:27:02.140Z,1.30
2019-01-28T14:29:42.963Z,0.93
2019-01-28T14:32:23.319Z,1.00
2019-01-28T14:35:04.164Z,1.10
2019-01-28T14:37:44.852Z,1.47
2019-01-28T14:40:25.160Z,1.10
2019-01-28T14:43:05.951Z,1.13
2019-01-28T14:45:47.175Z,1.37
2019-01-28T14:48:27.691Z,1.67
2019-01-28T14:51:08.243Z,1.90
2019-01-28T14:53:49.120Z,2.27
2019-01-28T14:56:29.855Z,5.20
2019-01-28T14:59:10.902Z,1.67
2019-01-28T15:01:52.135Z,2.90
2019-01-28T15:04:33.188Z,3.10
2019-01-28T15:07:13.729Z,2.20
2019-01-28T15:09:54.392Z,2.57
2019-01-28T15:12:35.004Z,3.50
2019-01-28T15:15:15.842Z,2.97
2019-01-28T15:17:56.988Z,2.90
2019-01-28T15:20:38.423Z,3.13
2019-01-28T15:23:18.960Z,2.73
2019-01-28T15:25:59.796Z,2.37
2019-01-28T15:28:40.777Z,2.43
2019-01-28T15:31:21.919Z,2.97
2019-01-28T15:34:02.850Z,2.10
2019-01-28T15:36:43.771Z,3.70
2019-01-28T15:39:24.398Z,1.60
2019-01-28T15:42:05.155Z,1.70
2019-01-28T15:44:45.515Z,3.20
2019-01-28T15:47:26.438Z,1.47
2019-01-28T15:50:10.715Z,1.87
2019-01-28T15:52:55.920Z,2.50
2019-01-28T15:55:43.998Z,2.23
2019-01-28T15:58:32.218Z,3.50
2019-01-28T16:01:20.208Z,3.77
2019-01-28T16:04:08.355Z,4.53
2019-01-28T16:06:56.685Z,2.60
2019-01-28T16:09:37.358Z,2.67
2019-01-28T16:12:18.124Z,2.43
2019-01-28T16:14:58.898Z,2.50
2019-01-28T16:17:39.519Z,2.50
2019-01-28T16:20:20.395Z,3.27
2019-01-28T16:23:00.984Z,3.30
2019-01-28T16:25:41.769Z,3.03
2019-01-28T16:28:22.282Z,3.67
2019-01-28T16:31:03.128Z,3.90
2019-01-28T16:33:43.538Z,4.77
2019-01-28T16:36:24.239Z,4.07
2019-01-28T16:39:05.811Z,4.30
2019-01-28T16:41:46.807Z,5.80
2019-01-28T16:44:27.284Z,5.63
2019-01-28T16:47:08.035Z,5.27
2019-01-28T16:49:49.011Z,6.60
2019-01-28T16:52:29.788Z,5.60
2019-01-28T16:55:10.298Z,7.20
2019-01-28T16:57:50.984Z,7.50
2019-01-28T17:00:31.445Z,8.97
2019-01-28T17:03:12.229Z,7.87
2019-01-28T17:05:52.809Z,9.17
2019-01-28T17:08:33.832Z,8.70
2019-01-28T17:11:14.190Z,9.70
2019-01-28T17:13:54.985Z,10.93
2019-01-28T17:16:36.132Z,12.10
2019-01-28T17:19:17.021Z,14.63
2019-01-28T17:21:57.627Z,17.80
2019-01-28T17:24:38.332Z,24.93
2019-01-28T17:27:19.453Z,17.57
2019-01-28T17:30:00.335Z,23.77
2019-01-28T17:32:41.023Z,21.13
2019-01-28T17:35:21.463Z,20.10
2019-01-28T17:38:02.251Z,20.00
2019-01-28T17:40:42.875Z,15.60
2019-01-28T17:43:23.550Z,16.53
2019-01-28T17:46:04.436Z,12.37
2019-01-28T17:48:45.270Z,12.57
2019-01-28T17:51:25.854Z,14.20
2019-01-28T17:54:06.310Z,11.80
2019-01-28T17:56:47.282Z,13.10
2019-01-28T17:59:27.774Z,15.60
2019-01-28T18:02:08.627Z,11.50
2019-01-28T18:04:49.044Z,10.00
2019-01-28T18:07:29.911Z,13.57
2019-01-28T18:10:10.555Z,12.63
2019-01-28T18:12:51.294Z,14.20
2019-01-28T18:15:31.866Z,15.33
2019-01-28T18:18:12.809Z,13.20
2019-01-28T18:20:53.715Z,15.57
2019-01-28T18:23:53.259Z,12.40
2019-01-28T18:26:34.507Z,15.47
2019-01-28T18:29:14.937Z,12.90
2019-01-28T18:31:55.692Z,13.90
2019-01-28T18:34:36.308Z,13.00
2019-01-28T18:37:16.901Z,12.00
2019-01-28T18:39:57.599Z,14.00
2019-01-28T18:42:38.115Z,16.60
2019-01-28T18:45:18.842Z,17.57
2019-01-28T18:47:59.467Z,21.60
2019-01-28T18:50:39.987Z,22.20
2019-01-28T18:53:20.912Z,21.10
2019-01-28T18:56:01.311Z,21.60
2019-01-28T18:58:41.934Z,18.87
2019-01-28T19:01:22.363Z,15.17
2019-01-28T19:04:02.968Z,16.17
2019-01-28T19:07:02.844Z,17.30
2019-01-28T19:09:52.479Z,12.20
2019-01-28T19:12:41.097Z,9.90
2019-01-28T19:15:41.243Z,7.77
2019-01-28T19:18:25.805Z,9.40
2019-01-28T19:21:14.283Z,8.93
2019-01-28T19:23:55.355Z,8.73
2019-01-28T19:26:35.741Z,8.20
2019-01-28T19:29:16.415Z,7.67
2019-01-28T19:31:56.984Z,7.93
2019-01-28T19:34:37.494Z,9.40
2019-01-28T19:37:18.142Z,7.77
2019-01-28T19:39:58.998Z,8.80
2019-01-28T19:42:40.280Z,7.27
2019-01-28T19:45:21.386Z,7.87
2019-01-28T19:48:02.112Z,7.63
2019-01-28T19:50:42.484Z,6.30
2019-01-28T19:53:22.893Z,6.73
2019-01-28T19:56:03.808Z,6.60
2019-01-28T19:58:44.409Z,7.60
2019-01-28T20:01:25.351Z,5.33
2019-01-28T20:04:05.804Z,5.00
2019-01-28T20:06:46.299Z,5.47
2019-01-28T20:09:27.023Z,6.07
2019-01-28T20:12:07.954Z,6.23
2019-01-28T20:14:49.263Z,6.13
2019-01-28T20:17:30.121Z,6.43
2019-01-28T20:20:10.631Z,10.13
2019-01-28T20:22:51.302Z,7.33
2019-01-28T20:25:32.005Z,8.27
2019-01-28T20:28:12.815Z,8.23
2019-01-28T20:30:53.590Z,7.93
2019-01-28T20:33:34.403Z,8.87
2019-01-28T20:36:14.899Z,8.10
2019-01-28T20:38:55.724Z,6.83
2019-01-28T20:41:36.654Z,7.67
2019-01-28T20:44:17.751Z,8.63
2019-01-28T20:46:58.075Z,5.50
2019-01-28T20:49:38.780Z,6.60
2019-01-28T20:52:19.518Z,7.67
2019-01-28T20:55:00.160Z,5.67
2019-01-28T20:57:40.825Z,8.20
2019-01-28T21:00:21.356Z,6.10
2019-01-28T21:03:02.005Z,6.07
2019-01-28T21:05:43.130Z,6.30
2019-01-28T21:08:23.687Z,7.97
2019-01-28T21:11:04.476Z,8.03
2019-01-28T21:13:45.048Z,6.70
2019-01-28T21:16:25.698Z,9.03
2019-01-28T21:19:07.071Z,5.50
2019-01-28T21:21:47.662Z,6.73
2019-01-28T21:24:29.006Z,7.57
2019-01-28T21:27:09.555Z,10.53
2019-01-28T21:29:50.133Z,5.90
2019-01-28T21:32:30.860Z,7.90
2019-01-28T21:35:11.889Z,7.63
2019-01-28T21:38:00.756Z,6.00
2019-01-28T21:40:40.071Z,6.30
2019-01-28T21:43:20.590Z,6.07
2019-01-28T21:46:01.288Z,5.63
2019-01-28T21:48:41.955Z,6.43
2019-01-28T21:51:22.730Z,7.03
2019-01-28T21:54:03.582Z,7.90
2019-01-28T21:56:44.272Z,6.27
2019-01-28T21:59:24.994Z,5.80
2019-01-28T22:02:05.619Z,6.97
2019-01-28T22:04:46.510Z,6.30
2019-01-28T22:07:26.887Z,4.97
2019-01-28T22:10:08.412Z,4.30
2019-01-28T22:12:49.103Z,4.83
2019-01-28T22:15:29.533Z,5.03
2019-01-28T22:18:10.329Z,6.23
2019-01-28T22:20:50.979Z,5.63
2019-01-28T22:23:31.823Z,5.80
2019-01-28T22:26:12.626Z,6.97
2019-01-28T22:28:53.119Z,7.60
2019-01-28T22:31:33.790Z,10.03
2019-01-28T22:34:14.639Z,6.73
2019-01-28T22:36:55.526Z,7.30
2019-01-28T22:39:36.742Z,8.00
2019-01-28T22:42:21.486Z,10.30
2019-01-28T22:45:00.990Z,9.43
2019-01-28T22:47:41.482Z,8.87
2019-01-28T22:50:24.007Z,10.67
2019-01-28T22:53:05.151Z,9.70
2019-01-28T22:55:45.994Z,8.83
2019-01-28T22:58:26.726Z,7.97
2019-01-28T23:01:08.819Z,10.50
2019-01-28T23:03:49.114Z,12.13
2019-01-28T23:06:30.317Z,9.13
2019-01-28T23:09:11.144Z,8.50
2019-01-28T23:11:51.802Z,11.47
2019-01-28T23:14:32.831Z,12.47
2019-01-28T23:17:13.919Z,9.40
2019-01-28T23:19:54.567Z,9.43
2019-01-28T23:22:35.714Z,8.00
2019-01-28T23:25:16.337Z,8.97
2019-01-28T23:27:57.511Z,6.63
2019-01-28T23:30:38.200Z,7.67
2019-01-28T23:33:18.851Z,5.20
2019-01-28T23:35:59.815Z,8.50
2019-01-28T23:38:40.690Z,4.77
2019-01-28T23:41:21.312Z,7.37
2019-01-28T23:44:02.490Z,12.47
2019-01-28T23:46:43.219Z,7.67
2019-01-28T23:49:23.910Z,10.00
2019-01-28T23:52:04.431Z,5.77
2019-01-28T23:54:45.077Z,8.50
2019-01-28T23:57:25.948Z,10.87
